IGO402 VIDN-VAPO
Flight info
| Callsign | IGO402 |
|---|---|
| Flight time | N/A |
| Altitude | 38000 |
| Route | DDN J6 DPN Q2 SG DCT DOGAP |
| Aircraft | A20N/M-SDE2E3FGHIRWXY/LB1 |
Departure
| Time | N/A |
|---|---|
| Airport | Dehradun Jolly Grant Airport (VIDN) |
Arrival
| Time | 2026-04-30 17:59 |
|---|---|
| Airport | Pune International Airport (VAPO) |
| Time | Latitude | Longitude | Altitude | Speed | Heading |
|---|---|---|---|---|---|
| 2026-04-30 17:39 | 18.70400 | 73.64259 | 28071 ft | 477 kts | 85° |
| 2026-04-30 17:41 | 18.68061 | 73.77509 | 26631 ft | 482 kts | 101° |
| 2026-04-30 17:42 | 18.66796 | 73.85404 | 24214 ft | 491 kts | 90° |
| 2026-04-30 17:43 | 18.66357 | 73.92483 | 21661 ft | 483 kts | 90° |
| 2026-04-30 17:44 | 18.65908 | 74.01763 | 18576 ft | 463 kts | 90° |
| 2026-04-30 17:44 | 18.65579 | 74.12301 | 14866 ft | 440 kts | 90° |
| 2026-04-30 17:47 | 18.65433 | 74.22997 | 10904 ft | 420 kts | 90° |
| 2026-04-30 17:48 | 18.65262 | 74.35045 | 6016 ft | 405 kts | 92° |
| 2026-04-30 17:48 | 18.62302 | 74.42685 | 4461 ft | 357 kts | 139° |
| 2026-04-30 17:49 | 18.54299 | 74.44522 | 4947 ft | 276 kts | 205° |
| 2026-04-30 17:50 | 18.49330 | 74.39135 | 4924 ft | 260 kts | 255° |
| 2026-04-30 17:51 | 18.50086 | 74.33671 | 4935 ft | 255 kts | 286° |
| 2026-04-30 17:52 | 18.51484 | 74.28238 | 4920 ft | 256 kts | 285° |
| 2026-04-30 17:53 | 18.53694 | 74.19153 | 4940 ft | 257 kts | 285° |
| 2026-04-30 17:54 | 18.55443 | 74.11880 | 4944 ft | 256 kts | 284° |
| 2026-04-30 17:55 | 18.57092 | 74.05023 | 4855 ft | 208 kts | 285° |
| 2026-04-30 17:56 | 18.57686 | 73.99857 | 3575 ft | 171 kts | 276° |
| 2026-04-30 17:57 | 18.58006 | 73.96317 | 2674 ft | 161 kts | 261° |
| 2026-04-30 17:58 | 18.58162 | 73.92996 | 1952 ft | 141 kts | 274° |
| 2026-04-30 17:59 | 18.58196 | 73.91052 | 1925 ft | 23 kts | 218° |